Arizona, Louisiana
Current Conditions -  °F | °C
As of 6:15 AM on Monday 26 Jan 2015 (Local Time) from KMNE Reporting Station
Clear Clear  
Wind Chill: 36°   Ceiling: Unl
Heat Index: 36°   Visibility: 10mi
Dew Point: 31°   Wind: 0mph
Humidity: 85%   Direction: NA
Pressure: 30.16"   Gusts: NA
Location:  32.7443°N, 92.9625°W
Report Text: KMNE 261215Z AUTO 00000KT 10SM CLR 02/00 A3016 RMK AO2 T00201003
Loading
Personal Weather Stations






























Interactive Weather Map New forecast layout! Learn more

10-Day Weather Forecast

Advertisements
Track Severe Weather on mobile